createdAt,value
2022-08-31T00:00:41.853Z,60.40
2022-08-31T00:04:00.563Z,60.70
2022-08-31T00:07:04.213Z,62.10
2022-08-31T00:10:14.957Z,61.00
2022-08-31T00:13:18.833Z,61.70
2022-08-31T00:16:22.636Z,61.50
2022-08-31T00:19:25.828Z,61.60
2022-08-31T00:22:29.171Z,60.80
2022-08-31T00:25:36.338Z,60.70
2022-08-31T00:28:39.704Z,61.20
2022-08-31T00:31:43.362Z,60.80
2022-08-31T00:34:46.807Z,60.90
2022-08-31T00:37:50.047Z,60.90
2022-08-31T00:40:54.777Z,61.00
2022-08-31T00:44:02.265Z,61.10
2022-08-31T00:47:05.960Z,61.20
2022-08-31T00:50:14.062Z,61.20
2022-08-31T00:53:17.951Z,61.50
2022-08-31T00:56:23.819Z,61.50
2022-08-31T00:59:28.495Z,61.70
2022-08-31T01:02:31.877Z,61.70
2022-08-31T01:05:36.756Z,61.70
2022-08-31T01:08:40.190Z,63.20
2022-08-31T01:11:45.156Z,62.40
2022-08-31T01:14:48.711Z,62.30
2022-08-31T01:17:55.890Z,62.50
2022-08-31T01:21:18.471Z,62.70
2022-08-31T01:24:25.943Z,62.50
2022-08-31T01:27:34.098Z,62.40
2022-08-31T01:30:38.174Z,62.30
2022-08-31T01:33:42.488Z,64.00
2022-08-31T01:36:48.959Z,62.10
2022-08-31T01:39:54.006Z,60.90
2022-08-31T01:42:57.232Z,62.20
2022-08-31T01:46:00.710Z,61.60
2022-08-31T01:49:04.200Z,62.10
2022-08-31T01:52:07.863Z,62.30
2022-08-31T01:55:12.928Z,63.20
2022-08-31T02:01:33.626Z,62.10
2022-08-31T02:04:37.360Z,62.80
2022-08-31T02:07:40.559Z,62.80
2022-08-31T02:10:46.314Z,62.80
2022-08-31T02:13:49.821Z,64.10
2022-08-31T02:16:53.214Z,62.70
2022-08-31T02:19:56.541Z,62.00
2022-08-31T02:23:03.171Z,63.00
2022-08-31T02:26:08.277Z,62.70
2022-08-31T02:29:11.695Z,63.30
2022-08-31T02:32:19.466Z,64.40
2022-08-31T02:35:23.668Z,63.40
2022-08-31T02:38:27.456Z,63.20
2022-08-31T02:41:32.186Z,63.10
2022-08-31T02:44:35.660Z,63.30
2022-08-31T02:47:39.641Z,63.40
2022-08-31T02:50:45.407Z,62.50
2022-08-31T02:53:49.719Z,63.50
2022-08-31T02:56:54.824Z,63.70
2022-08-31T02:59:58.303Z,63.70
2022-08-31T03:03:01.783Z,63.40
2022-08-31T03:06:05.844Z,63.30
2022-08-31T03:09:09.055Z,63.10
2022-08-31T03:12:13.826Z,63.50
2022-08-31T03:15:19.830Z,63.70
2022-08-31T03:18:23.618Z,63.50
2022-08-31T03:21:26.947Z,64.60
2022-08-31T03:24:31.274Z,63.90
2022-08-31T03:27:37.143Z,63.70
2022-08-31T03:30:41.515Z,64.00
2022-08-31T03:33:44.717Z,64.10
2022-08-31T03:36:47.913Z,64.30
2022-08-31T03:39:51.960Z,64.20
2022-08-31T03:42:57.932Z,65.80
2022-08-31T03:46:01.176Z,64.90
2022-08-31T03:49:06.297Z,64.90
2022-08-31T03:52:09.913Z,65.90
2022-08-31T03:55:13.955Z,65.10
2022-08-31T03:58:18.585Z,66.30
2022-08-31T04:01:21.902Z,65.10
2022-08-31T04:04:25.191Z,66.30
2022-08-31T04:07:28.446Z,65.20
2022-08-31T04:10:32.478Z,65.10
2022-08-31T04:13:38.535Z,66.00
2022-08-31T04:16:43.753Z,64.90
2022-08-31T04:19:47.078Z,65.90
2022-08-31T04:22:50.280Z,65.30
2022-08-31T04:25:53.496Z,65.30
2022-08-31T04:28:58.761Z,65.50
2022-08-31T04:32:02.075Z,65.90
2022-08-31T04:35:08.452Z,65.40
2022-08-31T04:38:12.523Z,65.60
2022-08-31T04:41:21.147Z,65.20
2022-08-31T04:44:26.808Z,65.70
2022-08-31T04:47:30.053Z,65.40
2022-08-31T04:50:33.350Z,65.50
2022-08-31T04:53:36.758Z,65.70
2022-08-31T04:56:42.763Z,65.90
2022-08-31T04:59:47.421Z,65.90
2022-08-31T05:02:52.894Z,66.10
2022-08-31T05:05:56.885Z,66.00
2022-08-31T05:09:03.551Z,66.80
2022-08-31T05:12:07.099Z,66.40
2022-08-31T05:15:12.398Z,66.90
2022-08-31T05:18:16.130Z,68.30
2022-08-31T05:21:28.248Z,69.00
2022-08-31T05:24:35.704Z,68.10
2022-08-31T05:27:39.634Z,67.60
2022-08-31T05:30:47.501Z,68.10
2022-08-31T05:33:51.487Z,65.90
2022-08-31T05:36:56.529Z,67.30
2022-08-31T05:40:00.000Z,65.10
2022-08-31T05:43:03.335Z,64.50
2022-08-31T05:46:10.771Z,63.40
2022-08-31T05:49:14.260Z,62.00
2022-08-31T05:52:17.936Z,61.50
2022-08-31T05:55:21.739Z,59.30
2022-08-31T05:58:24.922Z,59.40
2022-08-31T06:01:33.952Z,58.60
2022-08-31T06:04:37.792Z,57.70
2022-08-31T06:07:41.508Z,56.80
2022-08-31T06:10:45.350Z,56.30
2022-08-31T06:13:50.710Z,54.50
2022-08-31T06:16:56.575Z,55.40
2022-08-31T06:20:00.239Z,54.40
2022-08-31T06:23:04.078Z,54.30
2022-08-31T06:26:13.330Z,53.90
2022-08-31T06:29:16.607Z,53.30
2022-08-31T06:32:21.965Z,51.90
2022-08-31T06:35:25.350Z,52.00
2022-08-31T06:38:28.783Z,52.00
2022-08-31T06:41:39.037Z,51.80
2022-08-31T06:44:42.247Z,50.60
2022-08-31T06:47:47.243Z,50.90
2022-08-31T06:50:57.901Z,50.40
2022-08-31T06:54:11.492Z,48.20
2022-08-31T06:57:25.739Z,50.10
2022-08-31T07:00:28.994Z,49.80
2022-08-31T07:03:35.663Z,49.20
2022-08-31T07:06:42.895Z,48.60
2022-08-31T07:09:46.482Z,48.20
2022-08-31T07:12:49.716Z,48.40
2022-08-31T07:15:53.007Z,47.60
2022-08-31T07:19:03.343Z,48.00
2022-08-31T07:22:09.294Z,47.20
2022-08-31T07:25:18.121Z,47.50
2022-08-31T07:28:21.945Z,47.20
2022-08-31T07:31:37.547Z,45.80
2022-08-31T07:34:43.956Z,45.80
2022-08-31T07:38:05.207Z,45.60
2022-08-31T07:41:27.699Z,46.10
2022-08-31T07:44:34.502Z,46.40
2022-08-31T07:47:45.102Z,47.00
2022-08-31T07:50:50.250Z,47.60
2022-08-31T07:53:54.536Z,47.60
2022-08-31T07:57:01.123Z,47.30
2022-08-31T08:00:09.331Z,48.20
2022-08-31T08:03:13.434Z,49.00
2022-08-31T08:06:19.641Z,49.40
2022-08-31T08:09:24.679Z,49.70
2022-08-31T08:12:36.850Z,50.00
2022-08-31T08:15:40.576Z,50.40
2022-08-31T08:18:44.252Z,50.50
2022-08-31T08:21:49.880Z,52.00
2022-08-31T08:24:58.001Z,50.70
2022-08-31T08:28:17.149Z,50.90
2022-08-31T08:31:28.775Z,50.90
2022-08-31T08:34:32.867Z,51.60
2022-08-31T08:37:57.257Z,50.90
2022-08-31T08:41:08.022Z,50.00
2022-08-31T08:44:17.950Z,50.20
2022-08-31T08:47:37.486Z,48.70
2022-08-31T08:50:43.233Z,49.20
2022-08-31T08:53:56.912Z,49.10
2022-08-31T08:57:04.612Z,48.70
2022-08-31T09:00:11.701Z,48.90
2022-08-31T09:03:30.709Z,49.10
2022-08-31T09:06:45.829Z,48.80
2022-08-31T09:10:02.255Z,48.00
2022-08-31T09:13:22.927Z,48.20
2022-08-31T09:16:40.903Z,47.60
2022-08-31T09:20:00.430Z,47.80
2022-08-31T09:23:07.862Z,48.40
2022-08-31T09:26:18.608Z,48.80
2022-08-31T09:29:26.733Z,47.80
2022-08-31T09:32:35.952Z,48.30
2022-08-31T09:35:41.336Z,48.50
2022-08-31T09:38:46.867Z,47.20
2022-08-31T09:41:54.913Z,48.10
2022-08-31T09:45:01.826Z,47.80
2022-08-31T09:48:08.734Z,46.50
2022-08-31T09:51:22.973Z,47.00
2022-08-31T09:54:54.023Z,46.90
2022-08-31T09:58:07.826Z,46.80
2022-08-31T10:01:19.605Z,46.60
2022-08-31T10:04:27.174Z,46.70
2022-08-31T10:07:43.208Z,46.60
2022-08-31T10:10:49.713Z,46.30
2022-08-31T10:14:04.476Z,46.10
2022-08-31T10:17:15.196Z,46.80
2022-08-31T10:20:30.355Z,46.70
2022-08-31T10:23:42.941Z,46.80
2022-08-31T10:26:54.148Z,46.60
2022-08-31T10:30:07.752Z,46.70
2022-08-31T10:33:21.502Z,46.70
2022-08-31T10:36:28.118Z,46.20
2022-08-31T10:39:39.245Z,46.40
2022-08-31T10:42:50.312Z,46.60
2022-08-31T10:45:55.774Z,44.20
2022-08-31T10:49:00.993Z,44.80
2022-08-31T10:52:18.165Z,45.40
2022-08-31T10:55:37.550Z,44.90
2022-08-31T10:58:58.134Z,45.50
2022-08-31T11:02:40.888Z,45.30
2022-08-31T11:05:56.127Z,45.30
2022-08-31T11:09:07.892Z,45.10
2022-08-31T11:12:20.716Z,44.70
2022-08-31T11:16:04.636Z,45.90
2022-08-31T11:20:06.303Z,44.50
2022-08-31T11:23:45.024Z,44.70
2022-08-31T11:26:58.147Z,44.50
2022-08-31T11:30:08.149Z,45.00
2022-08-31T11:33:19.653Z,45.60
2022-08-31T11:36:50.136Z,45.40
2022-08-31T11:39:53.896Z,45.40
2022-08-31T11:43:01.420Z,45.70
2022-08-31T11:46:43.060Z,45.20
2022-08-31T11:49:49.985Z,45.00
2022-08-31T11:52:56.766Z,45.40
2022-08-31T11:56:03.969Z,44.40
2022-08-31T11:59:35.200Z,44.60
2022-08-31T12:02:45.904Z,44.70
2022-08-31T12:05:57.714Z,44.20
2022-08-31T12:09:30.122Z,44.10
2022-08-31T12:13:19.445Z,43.70
2022-08-31T12:16:47.998Z,44.20
2022-08-31T12:20:05.074Z,44.10
2022-08-31T12:23:36.553Z,44.30
2022-08-31T12:27:11.476Z,43.80
2022-08-31T12:30:22.485Z,45.00
2022-08-31T12:33:30.654Z,43.90
2022-08-31T12:36:37.329Z,43.90
2022-08-31T12:39:40.591Z,44.50
2022-08-31T12:42:57.525Z,44.10
2022-08-31T12:46:42.887Z,44.20
2022-08-31T12:50:08.997Z,43.80
2022-08-31T12:53:50.549Z,43.80
2022-08-31T12:57:05.972Z,43.40
2022-08-31T13:00:17.856Z,44.10
2022-08-31T13:03:28.045Z,45.10
2022-08-31T13:06:34.609Z,44.10
2022-08-31T13:09:37.901Z,44.20
2022-08-31T13:12:48.565Z,43.90
2022-08-31T13:16:00.260Z,43.80
2022-08-31T13:19:09.257Z,43.30
2022-08-31T13:22:16.930Z,43.70
2022-08-31T13:25:36.081Z,43.30
2022-08-31T13:28:41.600Z,43.90
2022-08-31T13:31:52.883Z,43.30
2022-08-31T13:34:56.290Z,42.40
2022-08-31T13:38:05.284Z,42.80
2022-08-31T13:41:18.238Z,42.40
2022-08-31T13:44:33.697Z,42.60
2022-08-31T13:47:57.288Z,42.20
2022-08-31T13:51:07.278Z,42.00
2022-08-31T13:54:15.367Z,42.40
2022-08-31T13:57:25.809Z,42.50
2022-08-31T14:00:39.515Z,42.40
2022-08-31T14:03:57.083Z,42.30
2022-08-31T14:07:01.527Z,42.20
2022-08-31T14:10:19.313Z,42.30
2022-08-31T14:13:27.173Z,41.90
2022-08-31T14:16:36.603Z,41.90
2022-08-31T14:19:42.740Z,41.80
2022-08-31T14:22:49.928Z,41.90
2022-08-31T14:25:55.400Z,42.00
2022-08-31T14:29:01.941Z,41.80
2022-08-31T14:32:05.367Z,41.50
2022-08-31T14:35:11.987Z,41.40
2022-08-31T14:38:15.493Z,41.10
2022-08-31T14:41:25.162Z,41.20
2022-08-31T14:44:34.028Z,40.80
2022-08-31T14:47:43.922Z,40.90
2022-08-31T14:50:49.942Z,41.00
2022-08-31T14:53:56.789Z,40.70
2022-08-31T14:57:00.205Z,40.90
2022-08-31T15:00:06.982Z,41.40
2022-08-31T15:03:12.172Z,41.40
2022-08-31T15:06:20.632Z,41.30
2022-08-31T15:09:24.130Z,40.60
2022-08-31T15:12:28.466Z,41.50
2022-08-31T15:15:31.602Z,41.50
2022-08-31T15:18:37.467Z,41.90
2022-08-31T15:21:52.652Z,42.00
2022-08-31T15:25:03.304Z,41.50
2022-08-31T15:28:08.510Z,42.50
2022-08-31T15:31:21.952Z,41.60
2022-08-31T15:34:30.331Z,41.40
2022-08-31T15:37:35.069Z,41.50
2022-08-31T15:40:39.843Z,41.60
2022-08-31T15:43:44.270Z,41.70
2022-08-31T15:47:06.181Z,42.00
2022-08-31T15:50:10.344Z,40.50
2022-08-31T15:53:16.633Z,40.40
2022-08-31T15:56:21.584Z,41.20
2022-08-31T15:59:24.868Z,41.20
2022-08-31T16:02:28.248Z,41.40
2022-08-31T16:05:38.681Z,41.70
2022-08-31T16:08:43.372Z,42.00
2022-08-31T16:11:48.833Z,42.10
2022-08-31T16:14:58.304Z,41.90
2022-08-31T16:18:03.093Z,41.80
2022-08-31T16:21:07.388Z,41.50
2022-08-31T16:24:18.008Z,41.80
2022-08-31T16:27:21.646Z,41.90
2022-08-31T16:30:25.189Z,41.70
2022-08-31T16:33:28.487Z,42.30
2022-08-31T16:36:31.972Z,42.20
2022-08-31T16:39:38.239Z,41.30
2022-08-31T16:42:41.547Z,41.20
2022-08-31T16:45:44.910Z,41.30
2022-08-31T16:49:05.591Z,41.60
2022-08-31T16:52:12.155Z,41.40
2022-08-31T16:55:17.014Z,41.50
2022-08-31T16:58:47.648Z,41.40
2022-08-31T17:01:48.238Z,41.50
2022-08-31T17:04:53.733Z,41.70
2022-08-31T17:07:57.698Z,41.70
2022-08-31T17:11:04.059Z,41.70
2022-08-31T17:14:09.737Z,41.80
2022-08-31T17:17:17.324Z,41.90
2022-08-31T17:20:20.817Z,42.10
2022-08-31T17:23:25.712Z,42.20
2022-08-31T17:26:33.862Z,42.40
2022-08-31T17:29:44.263Z,42.70
2022-08-31T17:32:47.484Z,42.80
2022-08-31T17:35:51.781Z,42.50
2022-08-31T17:38:55.642Z,43.00
2022-08-31T17:42:00.689Z,43.10
2022-08-31T17:45:08.848Z,43.20
2022-08-31T17:48:12.385Z,43.40
2022-08-31T17:51:26.476Z,43.40
2022-08-31T17:54:32.711Z,43.10
2022-08-31T17:57:37.419Z,43.90
2022-08-31T18:00:41.277Z,44.10
2022-08-31T18:03:44.508Z,44.80
2022-08-31T18:06:51.645Z,44.30
2022-08-31T18:09:54.930Z,43.20
2022-08-31T18:13:02.709Z,44.50
2022-08-31T18:16:09.093Z,44.70
2022-08-31T18:19:13.506Z,45.00
2022-08-31T18:22:18.295Z,45.00
2022-08-31T18:25:22.312Z,45.20
2022-08-31T18:28:27.037Z,45.20
2022-08-31T18:31:31.780Z,45.40
2022-08-31T18:34:38.955Z,46.40
2022-08-31T18:37:42.739Z,45.70
2022-08-31T18:41:03.398Z,45.90
2022-08-31T18:44:27.085Z,46.10
2022-08-31T18:47:32.973Z,46.30
2022-08-31T18:50:37.466Z,46.30
2022-08-31T18:53:40.833Z,46.50
2022-08-31T18:56:44.257Z,46.80
2022-08-31T18:59:50.223Z,46.90
2022-08-31T19:02:54.934Z,47.50
2022-08-31T19:05:58.745Z,47.40
2022-08-31T19:09:03.270Z,47.70
2022-08-31T19:12:07.014Z,47.30
2022-08-31T19:15:13.629Z,48.10
2022-08-31T19:18:16.852Z,48.50
2022-08-31T19:21:23.921Z,48.50
2022-08-31T19:24:27.387Z,49.00
2022-08-31T19:27:30.734Z,49.40
2022-08-31T19:30:35.807Z,48.60
2022-08-31T19:33:39.133Z,49.10
2022-08-31T19:36:45.051Z,49.10
2022-08-31T19:39:48.973Z,48.80
2022-08-31T19:43:00.047Z,49.30
2022-08-31T19:46:14.426Z,49.50
2022-08-31T19:49:18.548Z,50.20
2022-08-31T19:52:24.267Z,50.00
2022-08-31T19:55:27.525Z,50.00
2022-08-31T19:58:30.881Z,50.20
2022-08-31T20:01:39.396Z,50.30
2022-08-31T20:04:44.095Z,50.80
2022-08-31T20:07:47.465Z,50.90
2022-08-31T20:10:50.894Z,51.10
2022-08-31T20:13:55.632Z,51.30
2022-08-31T20:17:00.861Z,51.40
2022-08-31T20:20:04.864Z,51.50
2022-08-31T20:23:08.200Z,52.40
2022-08-31T20:26:12.061Z,52.10
2022-08-31T20:29:19.021Z,52.20
2022-08-31T20:32:25.589Z,53.20
2022-08-31T20:35:32.979Z,52.70
2022-08-31T20:38:41.074Z,53.10
2022-08-31T20:41:48.381Z,54.00
2022-08-31T20:44:51.563Z,53.40
2022-08-31T20:48:13.528Z,53.40
2022-08-31T20:51:18.169Z,53.60
2022-08-31T20:54:22.731Z,53.60
2022-08-31T20:57:26.163Z,53.70
2022-08-31T21:00:30.246Z,54.30
2022-08-31T21:03:35.362Z,55.10
2022-08-31T21:06:39.250Z,54.00
2022-08-31T21:09:45.586Z,54.30
2022-08-31T21:12:49.246Z,54.50
2022-08-31T21:15:56.393Z,54.50
2022-08-31T21:19:01.164Z,54.40
2022-08-31T21:25:12.817Z,54.30
2022-08-31T21:28:18.426Z,54.70
2022-08-31T21:31:28.605Z,54.70
2022-08-31T21:34:34.431Z,54.80
2022-08-31T21:37:37.748Z,54.90
2022-08-31T21:40:49.594Z,54.90
2022-08-31T21:43:53.000Z,55.70
2022-08-31T21:46:56.257Z,55.30
2022-08-31T21:50:01.081Z,55.40
2022-08-31T21:53:04.671Z,55.70
2022-08-31T21:56:09.147Z,55.70
2022-08-31T21:59:13.247Z,55.90
2022-08-31T22:02:16.527Z,56.70
2022-08-31T22:05:21.468Z,55.90
2022-08-31T22:08:26.112Z,56.40
2022-08-31T22:11:32.880Z,56.50
2022-08-31T22:14:39.903Z,56.90
2022-08-31T22:18:06.035Z,57.10
2022-08-31T22:21:08.561Z,57.00
2022-08-31T22:24:26.891Z,56.40
2022-08-31T22:27:30.509Z,57.70
2022-08-31T22:30:37.319Z,57.50
2022-08-31T22:33:42.192Z,57.70
2022-08-31T22:36:54.168Z,58.10
2022-08-31T22:39:57.337Z,58.20
2022-08-31T22:43:00.597Z,57.90
2022-08-31T22:46:12.006Z,58.00
2022-08-31T22:49:16.792Z,59.80
2022-08-31T22:52:21.757Z,59.80
2022-08-31T22:55:24.955Z,58.30
2022-08-31T22:58:28.764Z,58.30
2022-08-31T23:01:34.880Z,58.40
2022-08-31T23:04:43.992Z,58.40
2022-08-31T23:07:49.736Z,58.40
2022-08-31T23:10:52.920Z,58.50
2022-08-31T23:14:01.894Z,58.00
2022-08-31T23:17:10.564Z,59.50
2022-08-31T23:20:19.370Z,58.70
2022-08-31T23:23:24.428Z,59.10
2022-08-31T23:26:30.882Z,59.20
2022-08-31T23:29:37.631Z,59.30
2022-08-31T23:32:44.541Z,59.40
2022-08-31T23:35:49.902Z,59.80
2022-08-31T23:38:55.654Z,58.90
2022-08-31T23:41:59.159Z,59.90
2022-08-31T23:45:03.300Z,59.90
2022-08-31T23:48:08.405Z,60.00
2022-08-31T23:51:13.529Z,60.00
2022-08-31T23:54:19.040Z,60.10
2022-08-31T23:57:32.584Z,60.30
